UBBB/BAK METAR and TAF weather

Enter ICAO airport designator
Station Type Date Time Source
UBBB METAR 2022/10/01 08:30 UTC NOAA

UBBB 010830Z 36010KT CAVOK 26/16 Q1021 NOSIG


Station Type Date Time Source
UBBB Decoded METAR 2022/10/01 08:30 UTC NOAA

Baku / Bine Airport, Azerbaijan (UBBB) 40-27N 050-04E -1M
Oct 01, 2022 - 04:30 AM EDT / 2022.10.01 0830 UTC
Wind: from the N (360 degrees) at 12 MPH (10 KT):0
Visibility: greater than 7 mile(s):0
Temperature: 78 F (26 C)
Dew Point: 60 F (16 C)
Relative Humidity: 54%
Pressure (altimeter): 30.15 in. Hg (1021 hPa)
ob: UBBB 010830Z 36010KT CAVOK 26/16 Q1021 NOSIG
cycle: 8

Station Type Date Time Source
UBBB TAF 2022/10/01 06:01 UTC NOAA

TAF UBBB 010457Z 0106/0206 34010KT CAVOK TX26/0110Z TN17/0201Z
TEMPO 0106/0108 01010KT
BECMG 0108/0110 03008KT
TEMPO 0110/0116 06006KT SCT030
TEMPO 0116/0120 VRB04KT FEW012
BECMG 0204/0206 14010KT

Example: see airport list